Terminal Aerodrome Forecast
Issued by NWS

Home | Current Version | Previous Version | Text Only | Print | Product List | Glossary On
Versions: 1 2 3 4 5 6 7 8 9 10 11 12 13 14 15 16 17 18 19 20 21 22 23
000
FTUS43 KIND 220520
TAFLAF
TAF
KLAF 220520Z 2206/2306 00000KT 6SM BR VCTS BKN040CB
     FM220800 00000KT 5SM BR BKN040 BKN120
     FM221100 07004KT 3SM BR VCSH BKN035
      TEMPO 2211/2214 1 1/2SM BR
     FM221700 04006KT 6SM BR VCSH OVC060
     FM221900 03008KT P6SM VCSH OVC060
     FM230000 01012KT 5SM BR OVC010
     FM230300 36012KT 2SM BR OVC008
      AMD LTD TO CLD VIS AND WIND TIL 221400=

USA.gov is the U.S. government's official web portal to all federal, state and local government web resources and services.